createdAt,value
2018-07-22T00:00:11.647Z,20.50
2018-07-22T00:02:39.895Z,20.50
2018-07-22T00:05:07.857Z,20.50
2018-07-22T00:07:35.612Z,20.50
2018-07-22T00:10:03.595Z,20.50
2018-07-22T00:12:31.221Z,20.50
2018-07-22T00:14:58.820Z,20.50
2018-07-22T00:17:26.425Z,20.50
2018-07-22T00:22:22.310Z,20.50
2018-07-22T00:24:49.890Z,20.50
2018-07-22T00:27:17.504Z,20.60
2018-07-22T00:29:45.220Z,20.50
2018-07-22T00:32:12.793Z,20.60
2018-07-22T00:34:40.377Z,20.60
2018-07-22T00:37:08.003Z,20.60
2018-07-22T00:39:35.582Z,20.60
2018-07-22T00:42:03.155Z,20.60
2018-07-22T00:44:30.784Z,20.60
2018-07-22T00:46:58.401Z,20.60
2018-07-22T00:49:25.965Z,20.60
2018-07-22T00:51:53.613Z,20.60
2018-07-22T00:54:21.181Z,20.60
2018-07-22T00:56:48.718Z,20.60
2018-07-22T00:59:16.297Z,20.60
2018-07-22T01:01:43.858Z,20.60
2018-07-22T01:04:11.421Z,20.50
2018-07-22T01:06:39.011Z,20.50
2018-07-22T01:09:08.175Z,20.50
2018-07-22T01:11:35.775Z,20.60
2018-07-22T01:14:03.501Z,20.60
2018-07-22T01:16:31.124Z,20.60
2018-07-22T01:21:26.189Z,20.60
2018-07-22T01:23:53.780Z,20.60
2018-07-22T01:26:21.399Z,20.60
2018-07-22T01:28:48.967Z,20.60
2018-07-22T01:31:16.560Z,20.60
2018-07-22T01:33:44.177Z,20.70
2018-07-22T01:36:11.736Z,20.60
2018-07-22T01:38:39.339Z,20.60
2018-07-22T01:41:06.978Z,20.60
2018-07-22T01:43:34.547Z,20.60
2018-07-22T01:46:02.129Z,20.70
2018-07-22T01:48:29.740Z,20.70
2018-07-22T01:50:57.382Z,20.70
2018-07-22T01:53:24.955Z,20.70
2018-07-22T01:55:52.619Z,20.70
2018-07-22T01:58:20.229Z,20.70
2018-07-22T02:00:47.820Z,20.80
2018-07-22T02:03:15.399Z,20.80
2018-07-22T02:05:43.019Z,20.80
2018-07-22T02:08:10.579Z,20.80
2018-07-22T02:13:05.736Z,20.80
2018-07-22T02:15:33.325Z,20.80
2018-07-22T02:18:00.938Z,20.80
2018-07-22T02:20:28.526Z,20.70
2018-07-22T02:22:56.097Z,20.70
2018-07-22T02:25:23.634Z,20.70
2018-07-22T02:27:51.206Z,20.60
2018-07-22T02:30:18.760Z,20.60
2018-07-22T02:32:46.368Z,20.60
2018-07-22T02:35:13.956Z,20.60
2018-07-22T02:37:41.512Z,20.60
2018-07-22T02:42:36.640Z,20.60
2018-07-22T02:45:04.300Z,20.60
2018-07-22T02:47:31.926Z,20.50
2018-07-22T02:49:59.489Z,20.60
2018-07-22T02:52:27.094Z,20.50
2018-07-22T02:54:54.694Z,20.50
2018-07-22T02:57:22.248Z,20.50
2018-07-22T02:59:49.811Z,20.50
2018-07-22T03:02:17.399Z,20.40
2018-07-22T03:04:45.288Z,20.40
2018-07-22T03:07:12.870Z,20.50
2018-07-22T03:09:40.477Z,20.40
2018-07-22T03:12:08.119Z,20.40
2018-07-22T03:14:35.698Z,20.50
2018-07-22T03:17:03.302Z,20.40
2018-07-22T03:19:30.882Z,20.40
2018-07-22T03:21:58.439Z,20.40
2018-07-22T03:24:26.056Z,20.50
2018-07-22T03:26:53.587Z,20.50
2018-07-22T03:29:21.588Z,20.50
2018-07-22T03:31:49.197Z,20.40
2018-07-22T03:34:16.762Z,20.40
2018-07-22T03:36:44.316Z,20.50
2018-07-22T03:39:11.955Z,20.40
2018-07-22T03:41:39.668Z,20.40
2018-07-22T03:44:07.604Z,20.50
2018-07-22T03:46:35.254Z,20.40
2018-07-22T03:49:02.841Z,20.50
2018-07-22T03:51:30.442Z,20.50
2018-07-22T03:53:58.077Z,20.50
2018-07-22T03:56:25.627Z,20.50
2018-07-22T03:58:53.148Z,20.60
2018-07-22T04:01:20.731Z,20.40
2018-07-22T04:03:48.367Z,20.50
2018-07-22T04:06:15.924Z,20.50
2018-07-22T04:08:43.507Z,20.50
2018-07-22T04:11:11.180Z,20.50
2018-07-22T04:13:38.775Z,20.50
2018-07-22T04:16:06.355Z,20.50
2018-07-22T04:18:38.492Z,20.50
2018-07-22T04:21:06.118Z,20.50
2018-07-22T04:23:33.646Z,20.50
2018-07-22T04:26:01.248Z,20.50
2018-07-22T04:28:28.848Z,20.50
2018-07-22T04:30:56.428Z,20.40
2018-07-22T04:33:24.039Z,20.40
2018-07-22T04:35:51.664Z,20.40
2018-07-22T04:38:19.251Z,20.50
2018-07-22T04:40:46.814Z,20.50
2018-07-22T04:43:14.400Z,20.60
2018-07-22T04:45:42.030Z,20.50
2018-07-22T04:48:09.659Z,20.50
2018-07-22T04:50:37.303Z,20.60
2018-07-22T04:53:04.984Z,20.50
2018-07-22T04:55:32.604Z,20.50
2018-07-22T05:00:27.644Z,20.40
2018-07-22T05:02:55.233Z,20.40
2018-07-22T05:05:22.843Z,20.40
2018-07-22T05:07:50.410Z,20.50
2018-07-22T05:10:18.019Z,20.40
2018-07-22T05:12:45.584Z,20.40
2018-07-22T05:15:13.142Z,20.40
2018-07-22T05:17:40.744Z,20.50
2018-07-22T05:20:08.338Z,20.50
2018-07-22T05:22:35.914Z,20.40
2018-07-22T05:25:03.512Z,20.50
2018-07-22T05:27:31.109Z,20.50
2018-07-22T05:29:58.635Z,20.50
2018-07-22T05:32:26.206Z,20.50
2018-07-22T05:34:53.781Z,20.50
2018-07-22T05:37:21.391Z,20.60
2018-07-22T05:39:48.926Z,20.60
2018-07-22T05:42:16.490Z,20.60
2018-07-22T05:44:44.035Z,20.70
2018-07-22T05:47:11.697Z,20.70
2018-07-22T05:49:39.242Z,20.70
2018-07-22T05:52:06.860Z,20.70
2018-07-22T05:54:34.422Z,20.70
2018-07-22T05:57:02.015Z,20.70
2018-07-22T05:59:29.596Z,20.60
2018-07-22T06:01:57.242Z,20.70
2018-07-22T06:04:24.831Z,20.70
2018-07-22T06:06:52.492Z,20.70
2018-07-22T06:09:20.081Z,20.80
2018-07-22T06:11:47.751Z,20.80
2018-07-22T06:14:15.316Z,20.90
2018-07-22T06:19:10.494Z,21.00
2018-07-22T06:21:38.090Z,21.00
2018-07-22T06:24:05.675Z,21.00
2018-07-22T06:26:33.272Z,21.00
2018-07-22T06:29:00.904Z,21.00
2018-07-22T06:31:28.486Z,21.00
2018-07-22T06:33:56.098Z,21.10
2018-07-22T06:36:23.725Z,21.00
2018-07-22T06:38:51.351Z,21.00
2018-07-22T06:41:18.938Z,21.10
2018-07-22T06:43:46.585Z,21.00
2018-07-22T06:46:14.151Z,21.10
2018-07-22T06:48:41.728Z,21.10
2018-07-22T06:51:09.329Z,21.20
2018-07-22T06:53:37.013Z,21.20
2018-07-22T06:56:04.731Z,21.30
2018-07-22T06:58:32.361Z,21.40
2018-07-22T07:01:00.146Z,21.50
2018-07-22T07:03:27.707Z,21.50
2018-07-22T07:05:55.313Z,21.60
2018-07-22T07:08:22.936Z,21.70
2018-07-22T07:10:50.573Z,21.70
2018-07-22T07:13:18.201Z,21.70
2018-07-22T07:15:45.813Z,21.70
2018-07-22T07:18:13.386Z,21.80
2018-07-22T07:20:41.045Z,21.80
2018-07-22T07:23:08.658Z,21.90
2018-07-22T07:25:36.252Z,22.00
2018-07-22T07:28:03.896Z,22.10
2018-07-22T07:30:31.499Z,22.20
2018-07-22T07:32:59.270Z,22.30
2018-07-22T07:35:27.070Z,22.40
2018-07-22T07:37:54.685Z,22.50
2018-07-22T07:40:22.322Z,22.60
2018-07-22T07:42:49.951Z,22.60
2018-07-22T07:45:17.578Z,22.60
2018-07-22T07:47:45.170Z,22.50
2018-07-22T07:50:12.868Z,22.50
2018-07-22T07:52:40.623Z,22.40
2018-07-22T07:55:08.292Z,22.40
2018-07-22T07:57:36.498Z,22.40
2018-07-22T08:00:04.916Z,22.30
2018-07-22T08:02:32.554Z,22.30
2018-07-22T08:05:00.216Z,22.30
2018-07-22T08:07:27.815Z,22.40
2018-07-22T08:09:55.514Z,22.40
2018-07-22T08:12:23.245Z,22.40
2018-07-22T08:14:50.901Z,22.50
2018-07-22T08:17:18.569Z,22.50
2018-07-22T08:19:46.215Z,22.60
2018-07-22T08:22:13.997Z,22.50
2018-07-22T08:24:41.683Z,22.50
2018-07-22T08:27:09.669Z,22.50
2018-07-22T08:29:39.258Z,22.50
2018-07-22T08:32:06.892Z,22.40
2018-07-22T08:34:34.595Z,22.40
2018-07-22T08:37:02.652Z,22.30
2018-07-22T08:39:31.286Z,22.30
2018-07-22T08:41:59.279Z,22.30
2018-07-22T08:44:27.040Z,22.30
2018-07-22T08:46:54.706Z,22.30
2018-07-22T08:49:22.399Z,22.50
2018-07-22T08:51:50.137Z,22.80
2018-07-22T08:54:19.760Z,23.00
2018-07-22T08:56:47.434Z,23.10
2018-07-22T08:59:15.050Z,23.20
2018-07-22T09:01:42.840Z,23.20
2018-07-22T09:04:10.515Z,23.20
2018-07-22T09:06:38.228Z,23.20
2018-07-22T09:09:07.801Z,23.40
2018-07-22T09:11:35.648Z,23.50
2018-07-22T09:14:03.376Z,23.40
2018-07-22T09:16:30.992Z,23.30
2018-07-22T09:18:58.596Z,23.20
2018-07-22T09:21:26.317Z,23.20
2018-07-22T09:23:53.966Z,23.20
2018-07-22T09:26:21.622Z,23.20
2018-07-22T09:28:49.322Z,23.40
2018-07-22T09:31:16.980Z,23.60
2018-07-22T09:33:44.940Z,23.90
2018-07-22T09:36:12.682Z,24.10
2018-07-22T09:38:40.292Z,24.30
2018-07-22T09:41:08.009Z,24.50
2018-07-22T09:43:35.660Z,24.60
2018-07-22T09:46:03.335Z,24.60
2018-07-22T09:48:30.949Z,24.70
2018-07-22T09:50:58.615Z,24.90
2018-07-22T09:53:26.279Z,25.00
2018-07-22T09:55:53.939Z,25.10
2018-07-22T09:58:21.678Z,25.10
2018-07-22T10:00:55.812Z,25.00
2018-07-22T10:03:24.561Z,24.80
2018-07-22T10:05:52.348Z,24.60
2018-07-22T10:08:20.032Z,24.50
2018-07-22T10:10:47.757Z,24.40
2018-07-22T10:13:15.488Z,24.20
2018-07-22T10:15:43.228Z,24.00
2018-07-22T10:18:10.903Z,24.10
2018-07-22T10:20:38.578Z,24.10
2018-07-22T10:23:06.228Z,24.20
2018-07-22T10:25:33.971Z,24.10
2018-07-22T10:28:01.579Z,24.10
2018-07-22T10:30:29.234Z,24.20
2018-07-22T10:32:56.936Z,24.20
2018-07-22T10:35:24.724Z,24.30
2018-07-22T10:37:52.367Z,24.40
2018-07-22T10:40:20.180Z,24.40
2018-07-22T10:42:49.533Z,24.40
2018-07-22T10:45:17.274Z,24.40
2018-07-22T10:47:44.884Z,24.50
2018-07-22T10:50:12.610Z,24.60
2018-07-22T10:52:40.308Z,24.60
2018-07-22T10:55:08.141Z,24.70
2018-07-22T10:57:36.137Z,24.80
2018-07-22T11:00:05.356Z,25.00
2018-07-22T11:02:33.049Z,25.10
2018-07-22T11:05:00.649Z,25.10
2018-07-22T11:07:28.257Z,25.30
2018-07-22T11:09:55.866Z,25.40
2018-07-22T11:12:23.557Z,25.50
2018-07-22T11:14:51.267Z,25.60
2018-07-22T11:17:18.834Z,25.70
2018-07-22T11:19:46.786Z,25.80
2018-07-22T11:22:14.417Z,25.90
2018-07-22T11:24:42.217Z,26.10
2018-07-22T11:27:10.118Z,26.20
2018-07-22T11:32:05.437Z,26.60
2018-07-22T11:34:33.184Z,26.50
2018-07-22T11:37:00.849Z,26.90
2018-07-22T11:39:28.444Z,27.40
2018-07-22T11:41:56.192Z,28.60
2018-07-22T11:44:23.839Z,29.60
2018-07-22T11:46:51.467Z,29.80
2018-07-22T11:49:19.119Z,29.30
2018-07-22T11:51:46.736Z,28.60
2018-07-22T11:54:14.304Z,28.10
2018-07-22T11:56:41.983Z,27.70
2018-07-22T11:59:09.617Z,27.80
2018-07-22T12:01:37.248Z,27.90
2018-07-22T12:04:05.134Z,28.00
2018-07-22T12:06:32.906Z,28.10
2018-07-22T12:09:00.597Z,28.20
2018-07-22T12:11:28.291Z,28.00
2018-07-22T12:13:55.916Z,27.70
2018-07-22T12:16:23.571Z,27.40
2018-07-22T12:18:52.103Z,27.10
2018-07-22T12:21:19.775Z,26.80
2018-07-22T12:23:48.413Z,26.70
2018-07-22T12:26:17.047Z,26.60
2018-07-22T12:28:44.803Z,26.50
2018-07-22T12:31:12.897Z,26.40
2018-07-22T12:33:40.632Z,26.40
2018-07-22T12:36:08.702Z,26.20
2018-07-22T12:38:36.824Z,26.40
2018-07-22T12:41:04.613Z,26.60
2018-07-22T12:45:59.900Z,26.90
2018-07-22T12:48:27.570Z,27.00
2018-07-22T12:50:55.321Z,26.90
2018-07-22T12:53:22.971Z,26.80
2018-07-22T12:55:50.711Z,26.60
2018-07-22T12:58:18.396Z,26.60
2018-07-22T13:00:46.201Z,26.70
2018-07-22T13:03:14.021Z,27.00
2018-07-22T13:05:41.695Z,27.30
2018-07-22T13:08:09.385Z,27.50
2018-07-22T13:10:37.093Z,27.40
2018-07-22T13:13:04.921Z,27.30
2018-07-22T13:15:32.556Z,27.10
2018-07-22T13:18:00.219Z,26.80
2018-07-22T13:20:27.958Z,26.70
2018-07-22T13:22:55.568Z,26.60
2018-07-22T13:25:23.272Z,26.60
2018-07-22T13:27:51.002Z,26.70
2018-07-22T13:30:18.623Z,26.80
2018-07-22T13:32:46.416Z,26.90
2018-07-22T13:35:14.056Z,26.80
2018-07-22T13:37:41.734Z,26.60
2018-07-22T13:40:09.425Z,26.50
2018-07-22T13:42:37.134Z,26.40
2018-07-22T13:45:05.195Z,26.30
2018-07-22T13:47:32.967Z,26.30
2018-07-22T13:50:00.765Z,26.30
2018-07-22T13:52:28.399Z,26.20
2018-07-22T13:54:56.093Z,26.10
2018-07-22T13:57:23.781Z,26.10
2018-07-22T13:59:51.460Z,25.90
2018-07-22T14:02:19.110Z,25.80
2018-07-22T14:04:47.674Z,25.70
2018-07-22T14:07:15.435Z,25.60
2018-07-22T14:09:43.077Z,25.50
2018-07-22T14:12:10.744Z,25.40
2018-07-22T14:14:38.402Z,25.40
2018-07-22T14:17:06.100Z,25.40
2018-07-22T14:19:33.799Z,25.30
2018-07-22T14:22:01.477Z,25.30
2018-07-22T14:24:29.150Z,25.20
2018-07-22T14:26:56.881Z,25.20
2018-07-22T14:29:24.541Z,25.10
2018-07-22T14:31:52.277Z,25.00
2018-07-22T14:34:19.911Z,24.90
2018-07-22T14:36:47.582Z,24.90
2018-07-22T14:39:15.252Z,24.90
2018-07-22T14:41:42.916Z,24.90
2018-07-22T14:46:38.333Z,24.70
2018-07-22T14:49:06.026Z,24.60
2018-07-22T14:51:33.715Z,24.50
2018-07-22T14:54:02.056Z,24.40
2018-07-22T14:56:30.170Z,24.20
2018-07-22T14:58:58.179Z,24.20
2018-07-22T15:01:25.813Z,24.10
2018-07-22T15:03:53.471Z,24.00
2018-07-22T15:06:21.109Z,23.80
2018-07-22T15:08:48.809Z,23.70
2018-07-22T15:11:19.908Z,23.60
2018-07-22T15:13:48.750Z,23.50
2018-07-22T15:16:17.848Z,23.30
2018-07-22T15:18:47.069Z,23.10
2018-07-22T15:21:14.760Z,22.80
2018-07-22T15:23:42.412Z,22.40
2018-07-22T15:26:10.107Z,21.70
2018-07-22T15:28:37.796Z,21.50
2018-07-22T15:33:33.079Z,21.40
2018-07-22T15:36:00.723Z,21.40
2018-07-22T15:38:28.377Z,21.40
2018-07-22T15:40:56.045Z,21.40
2018-07-22T15:43:23.721Z,21.50
2018-07-22T15:45:51.344Z,21.60
2018-07-22T15:48:18.965Z,21.60
2018-07-22T15:50:46.563Z,21.70
2018-07-22T15:55:41.956Z,21.80
2018-07-22T15:58:09.432Z,21.80
2018-07-22T16:00:37.167Z,21.80
2018-07-22T16:03:04.909Z,21.80
2018-07-22T16:05:32.587Z,21.70
2018-07-22T16:08:00.285Z,21.70
2018-07-22T16:10:27.892Z,21.70
2018-07-22T16:12:55.525Z,21.80
2018-07-22T16:15:23.181Z,21.80
2018-07-22T16:17:50.779Z,21.80
2018-07-22T16:20:18.429Z,21.80
2018-07-22T16:22:46.143Z,22.00
2018-07-22T16:25:13.839Z,22.00
2018-07-22T16:27:41.418Z,22.00
2018-07-22T16:30:09.078Z,22.10
2018-07-22T16:32:36.792Z,22.20
2018-07-22T16:35:04.672Z,22.30
2018-07-22T16:37:32.412Z,22.40
2018-07-22T16:40:00.034Z,22.40
2018-07-22T16:42:27.659Z,22.40
2018-07-22T16:44:55.315Z,22.40
2018-07-22T16:47:23.066Z,22.30
2018-07-22T16:49:50.671Z,22.30
2018-07-22T16:52:18.342Z,22.20
2018-07-22T16:54:45.996Z,22.10
2018-07-22T16:57:14.812Z,22.10
2018-07-22T16:59:42.450Z,22.20
2018-07-22T17:02:10.240Z,22.20
2018-07-22T17:04:38.011Z,22.20
2018-07-22T17:07:05.814Z,22.10
2018-07-22T17:09:33.541Z,22.10
2018-07-22T17:12:01.206Z,22.10
2018-07-22T17:14:28.828Z,22.20
2018-07-22T17:16:56.580Z,22.20
2018-07-22T17:19:24.226Z,22.20
2018-07-22T17:21:51.892Z,22.20
2018-07-22T17:24:19.634Z,22.20
2018-07-22T17:26:47.424Z,22.20
2018-07-22T17:29:15.237Z,22.20
2018-07-22T17:31:42.795Z,22.20
2018-07-22T17:34:10.589Z,22.20
2018-07-22T17:36:38.233Z,22.20
2018-07-22T17:39:07.942Z,22.10
2018-07-22T17:41:35.695Z,22.10
2018-07-22T17:44:03.538Z,22.00
2018-07-22T17:46:31.738Z,22.00
2018-07-22T17:48:59.472Z,22.00
2018-07-22T17:51:27.147Z,22.00
2018-07-22T17:53:54.895Z,22.10
2018-07-22T17:56:22.590Z,22.10
2018-07-22T17:58:50.315Z,22.10
2018-07-22T18:01:18.044Z,22.00
2018-07-22T18:03:45.821Z,22.00
2018-07-22T18:08:41.129Z,22.00
2018-07-22T18:11:08.906Z,22.00
2018-07-22T18:13:36.615Z,22.00
2018-07-22T18:16:04.517Z,22.00
2018-07-22T18:18:32.243Z,22.00
2018-07-22T18:20:59.873Z,22.00
2018-07-22T18:23:27.567Z,22.00
2018-07-22T18:25:55.302Z,21.80
2018-07-22T18:28:22.968Z,21.70
2018-07-22T18:30:50.900Z,21.60
2018-07-22T18:33:18.684Z,21.70
2018-07-22T18:35:46.448Z,21.60
2018-07-22T18:38:14.162Z,21.60
2018-07-22T18:40:42.059Z,21.50
2018-07-22T18:43:10.090Z,21.50
2018-07-22T18:45:40.300Z,21.40
2018-07-22T18:48:09.129Z,21.50
2018-07-22T18:50:36.779Z,21.50
2018-07-22T18:53:04.483Z,21.40
2018-07-22T18:55:32.313Z,21.40
2018-07-22T18:58:00.122Z,21.40
2018-07-22T19:00:28.118Z,21.40
2018-07-22T19:02:55.880Z,21.40
2018-07-22T19:05:24.520Z,21.30
2018-07-22T19:07:52.296Z,21.30
2018-07-22T19:10:20.343Z,21.30
2018-07-22T19:12:48.463Z,21.30
2018-07-22T19:15:16.472Z,21.30
2018-07-22T19:17:44.869Z,21.30
2018-07-22T19:20:12.647Z,21.20
2018-07-22T19:22:40.362Z,21.20
2018-07-22T19:25:08.150Z,21.20
2018-07-22T19:27:35.773Z,21.20
2018-07-22T19:30:03.642Z,21.20
2018-07-22T19:32:31.292Z,21.20
2018-07-22T19:34:59.093Z,21.20
2018-07-22T19:37:26.760Z,21.30
2018-07-22T19:39:54.402Z,21.30
2018-07-22T19:42:22.106Z,21.30
2018-07-22T19:44:49.834Z,21.30
2018-07-22T19:47:18.263Z,21.30
2018-07-22T19:52:13.544Z,21.20
2018-07-22T19:54:41.287Z,21.20
2018-07-22T19:57:08.975Z,21.20
2018-07-22T19:59:36.639Z,21.20
2018-07-22T20:02:04.303Z,21.20
2018-07-22T20:04:32.624Z,21.20
2018-07-22T20:07:00.899Z,21.30
2018-07-22T20:09:28.640Z,21.30
2018-07-22T20:11:56.238Z,21.30
2018-07-22T20:14:23.899Z,21.30
2018-07-22T20:16:51.523Z,21.30
2018-07-22T20:19:19.095Z,21.30
2018-07-22T20:21:46.701Z,21.30
2018-07-22T20:24:14.371Z,21.30
2018-07-22T20:26:43.107Z,21.30
2018-07-22T20:29:10.791Z,21.30
2018-07-22T20:31:38.502Z,21.30
2018-07-22T20:34:06.224Z,21.30
2018-07-22T20:36:33.905Z,21.30
2018-07-22T20:39:01.712Z,21.30
2018-07-22T20:41:29.340Z,21.30
2018-07-22T20:43:56.956Z,21.40
2018-07-22T20:46:24.600Z,21.30
2018-07-22T20:48:52.799Z,21.40
2018-07-22T20:51:20.529Z,21.30
2018-07-22T20:53:48.081Z,21.40
2018-07-22T20:56:15.683Z,21.30
2018-07-22T20:58:43.307Z,21.40
2018-07-22T21:01:10.950Z,21.30
2018-07-22T21:03:38.596Z,21.30
2018-07-22T21:06:06.813Z,21.30
2018-07-22T21:08:34.360Z,21.30
2018-07-22T21:11:01.989Z,21.30
2018-07-22T21:13:29.604Z,21.30
2018-07-22T21:15:57.209Z,21.30
2018-07-22T21:18:25.668Z,21.30
2018-07-22T21:20:53.393Z,21.40
2018-07-22T21:23:20.997Z,21.30
2018-07-22T21:25:48.581Z,21.30
2018-07-22T21:28:16.221Z,21.30
2018-07-22T21:30:43.851Z,21.30
2018-07-22T21:33:11.510Z,21.30
2018-07-22T21:35:39.148Z,21.30
2018-07-22T21:38:06.897Z,21.30
2018-07-22T21:40:34.454Z,21.30
2018-07-22T21:43:02.047Z,21.30
2018-07-22T21:45:29.642Z,21.30
2018-07-22T21:47:57.302Z,21.30
2018-07-22T21:50:24.946Z,21.20
2018-07-22T21:52:52.564Z,21.20
2018-07-22T21:55:20.180Z,21.20
2018-07-22T21:57:47.771Z,21.20
2018-07-22T22:00:35.711Z,21.30
2018-07-22T22:03:04.071Z,21.30
2018-07-22T22:05:31.722Z,21.20
2018-07-22T22:07:59.368Z,21.20
2018-07-22T22:10:27.153Z,21.20
2018-07-22T22:12:55.239Z,21.20
2018-07-22T22:15:27.741Z,21.20
2018-07-22T22:17:56.400Z,21.20
2018-07-22T22:20:24.116Z,21.20
2018-07-22T22:22:51.731Z,21.20
2018-07-22T22:25:19.359Z,21.20
2018-07-22T22:27:47.112Z,21.20
2018-07-22T22:30:15.608Z,21.20
2018-07-22T22:32:43.797Z,21.10
2018-07-22T22:35:12.017Z,21.20
2018-07-22T22:40:08.555Z,21.10
2018-07-22T22:42:36.236Z,21.10
2018-07-22T22:45:03.955Z,21.10
2018-07-22T22:47:31.528Z,21.00
2018-07-22T22:49:59.084Z,21.00
2018-07-22T22:52:26.879Z,21.00
2018-07-22T22:54:54.440Z,21.00
2018-07-22T22:57:22.873Z,21.00
2018-07-22T22:59:50.436Z,21.00
2018-07-22T23:02:19.032Z,21.00
2018-07-22T23:04:46.621Z,21.00
2018-07-22T23:07:14.193Z,21.10
2018-07-22T23:09:41.787Z,21.00
2018-07-22T23:12:09.400Z,21.10
2018-07-22T23:14:37.028Z,21.10
2018-07-22T23:17:04.640Z,21.10
2018-07-22T23:19:33.914Z,21.00
2018-07-22T23:22:01.541Z,21.10
2018-07-22T23:24:29.118Z,21.10
2018-07-22T23:26:56.686Z,21.00
2018-07-22T23:29:24.293Z,21.10
2018-07-22T23:31:52.708Z,21.10
2018-07-22T23:34:20.302Z,21.00
2018-07-22T23:36:47.931Z,21.00
2018-07-22T23:39:15.489Z,21.00
2018-07-22T23:41:43.099Z,21.00
2018-07-22T23:44:10.658Z,21.00
2018-07-22T23:46:38.267Z,21.00
2018-07-22T23:49:05.838Z,21.00
2018-07-22T23:51:33.424Z,21.00
2018-07-22T23:54:01.045Z,20.90
2018-07-22T23:56:28.671Z,20.90
2018-07-22T23:58:56.261Z,20.90
